sensor_id;sensor_type;location;lat;lon;timestamp;pressure;altitude;pressure_sealevel;temperature;humidity
71151;BME280;59071;42.138;24.768;2023-07-31T00:01:17;99024.91;;;26.08;40.11
71151;BME280;59071;42.138;24.768;2023-07-31T00:03:43;99020.09;;;26.05;40.19
71151;BME280;59071;42.138;24.768;2023-07-31T00:06:08;99021.84;;;26.10;39.76
71151;BME280;59071;42.138;24.768;2023-07-31T00:08:34;99024.56;;;26.19;39.67
71151;BME280;59071;42.138;24.768;2023-07-31T00:10:59;99029.31;;;26.39;39.63
71151;BME280;59071;42.138;24.768;2023-07-31T00:13:25;99023.56;;;26.23;39.89
71151;BME280;59071;42.138;24.768;2023-07-31T00:15:50;99019.22;;;26.31;39.70
71151;BME280;59071;42.138;24.768;2023-07-31T00:18:15;99021.75;;;26.45;39.42
71151;BME280;59071;42.138;24.768;2023-07-31T00:20:41;99032.53;;;26.32;40.03
71151;BME280;59071;42.138;24.768;2023-07-31T00:23:06;99034.47;;;26.32;39.62
71151;BME280;59071;42.138;24.768;2023-07-31T00:25:32;99043.47;;;25.89;40.72
71151;BME280;59071;42.138;24.768;2023-07-31T00:27:57;99039.19;;;26.05;40.11
71151;BME280;59071;42.138;24.768;2023-07-31T00:30:23;99047.00;;;26.16;40.20
71151;BME280;59071;42.138;24.768;2023-07-31T00:32:50;99044.56;;;26.31;39.70
71151;BME280;59071;42.138;24.768;2023-07-31T00:35:16;99037.91;;;25.94;40.39
71151;BME280;59071;42.138;24.768;2023-07-31T00:37:41;99039.50;;;26.12;40.04
71151;BME280;59071;42.138;24.768;2023-07-31T00:40:07;99041.84;;;26.23;40.03
71151;BME280;59071;42.138;24.768;2023-07-31T00:42:33;99030.16;;;26.13;40.43
71151;BME280;59071;42.138;24.768;2023-07-31T00:44:58;99041.41;;;26.12;40.40
71151;BME280;59071;42.138;24.768;2023-07-31T00:47:24;99039.81;;;26.02;40.64
71151;BME280;59071;42.138;24.768;2023-07-31T00:49:49;99039.66;;;25.99;40.99
71151;BME280;59071;42.138;24.768;2023-07-31T00:52:15;99045.44;;;25.97;41.13
71151;BME280;59071;42.138;24.768;2023-07-31T00:54:41;99039.50;;;26.12;40.69
71151;BME280;59071;42.138;24.768;2023-07-31T00:57:06;99052.13;;;26.26;40.86
71151;BME280;59071;42.138;24.768;2023-07-31T00:59:33;99045.00;;;26.42;40.44
71151;BME280;59071;42.138;24.768;2023-07-31T01:01:59;99053.28;;;26.16;40.55
71151;BME280;59071;42.138;24.768;2023-07-31T01:04:25;99042.69;;;26.06;41.03
71151;BME280;59071;42.138;24.768;2023-07-31T01:11:57;99055.13;;;26.42;40.37
71151;BME280;59071;42.138;24.768;2023-07-31T01:14:24;99058.16;;;26.49;40.17
71151;BME280;59071;42.138;24.768;2023-07-31T01:16:50;99064.56;;;26.53;39.85
71151;BME280;59071;42.138;24.768;2023-07-31T01:19:18;99051.16;;;26.78;39.21
71151;BME280;59071;42.138;24.768;2023-07-31T01:25:07;99056.06;;;26.55;39.96
71151;BME280;59071;42.138;24.768;2023-07-31T01:27:34;99048.66;;;26.55;40.01
71151;BME280;59071;42.138;24.768;2023-07-31T01:30:11;99047.19;;;26.58;40.25
71151;BME280;59071;42.138;24.768;2023-07-31T01:32:43;99043.34;;;26.59;39.98
71151;BME280;59071;42.138;24.768;2023-07-31T01:35:12;99059.72;;;26.59;40.04
71151;BME280;59071;42.138;24.768;2023-07-31T01:37:38;99056.69;;;26.51;40.30
71151;BME280;59071;42.138;24.768;2023-07-31T01:40:04;99052.22;;;26.47;40.32
71151;BME280;59071;42.138;24.768;2023-07-31T01:42:30;99064.41;;;26.49;40.36
71151;BME280;59071;42.138;24.768;2023-07-31T01:44:55;99055.28;;;26.45;40.26
71151;BME280;59071;42.138;24.768;2023-07-31T01:47:21;99052.72;;;26.40;40.39
71151;BME280;59071;42.138;24.768;2023-07-31T01:49:46;99052.22;;;26.47;40.12
71151;BME280;59071;42.138;24.768;2023-07-31T01:52:11;99050.75;;;26.49;39.97
71151;BME280;59071;42.138;24.768;2023-07-31T01:54:37;99049.50;;;26.47;40.16
71151;BME280;59071;42.138;24.768;2023-07-31T01:57:02;99039.06;;;26.49;40.26
71151;BME280;59071;42.138;24.768;2023-07-31T01:59:28;99048.41;;;26.39;40.28
71151;BME280;59071;42.138;24.768;2023-07-31T02:01:54;99040.22;;;26.39;40.33
71151;BME280;59071;42.138;24.768;2023-07-31T02:04:19;99046.34;;;26.27;40.32
71151;BME280;59071;42.138;24.768;2023-07-31T02:06:45;99046.78;;;26.38;40.39
71151;BME280;59071;42.138;24.768;2023-07-31T02:09:10;99043.75;;;26.31;40.26
71151;BME280;59071;42.138;24.768;2023-07-31T02:11:35;99054.53;;;26.27;40.23
71151;BME280;59071;42.138;24.768;2023-07-31T02:14:01;99046.97;;;26.33;40.47
71151;BME280;59071;42.138;24.768;2023-07-31T02:16:26;99046.34;;;26.27;40.42
71151;BME280;59071;42.138;24.768;2023-07-31T02:18:52;99051.31;;;26.34;40.35
71151;BME280;59071;42.138;24.768;2023-07-31T02:21:17;99051.94;;;26.31;40.21
71151;BME280;59071;42.138;24.768;2023-07-31T02:23:42;99042.47;;;26.37;39.87
71151;BME280;59071;42.138;24.768;2023-07-31T02:26:08;99048.69;;;26.46;39.81
71151;BME280;59071;42.138;24.768;2023-07-31T02:28:33;99045.69;;;26.39;40.22
71151;BME280;59071;42.138;24.768;2023-07-31T02:30:59;99014.44;;;26.28;40.34
71151;BME280;59071;42.138;24.768;2023-07-31T02:33:24;99039.06;;;26.49;40.60
71151;BME280;59071;42.138;24.768;2023-07-31T02:35:50;99028.59;;;26.60;40.84
71151;BME280;59071;42.138;24.768;2023-07-31T02:38:15;99028.88;;;26.76;40.68
71151;BME280;59071;42.138;24.768;2023-07-31T02:40:41;99026.78;;;26.72;41.30
71151;BME280;59071;42.138;24.768;2023-07-31T02:43:07;99027.56;;;26.73;42.09
71151;BME280;59071;42.138;24.768;2023-07-31T02:45:32;99030.91;;;26.79;42.44
71151;BME280;59071;42.138;24.768;2023-07-31T02:47:58;99028.09;;;26.66;43.81
71151;BME280;59071;42.138;24.768;2023-07-31T02:50:23;99036.06;;;26.80;44.46
71151;BME280;59071;42.138;24.768;2023-07-31T02:52:48;99029.25;;;26.95;44.40
71151;BME280;59071;42.138;24.768;2023-07-31T02:55:14;99030.50;;;26.98;45.05
71151;BME280;59071;42.138;24.768;2023-07-31T02:57:39;99025.53;;;27.00;45.45
71151;BME280;59071;42.138;24.768;2023-07-31T03:00:05;99024.56;;;26.96;45.98
71151;BME280;59071;42.138;24.768;2023-07-31T03:02:32;99025.19;;;26.71;46.99
71151;BME280;59071;42.138;24.768;2023-07-31T03:04:57;99026.84;;;26.94;46.91
71151;BME280;59071;42.138;24.768;2023-07-31T03:07:23;99015.81;;;27.11;46.79
71151;BME280;59071;42.138;24.768;2023-07-31T03:09:48;99022.88;;;27.12;47.25
71151;BME280;59071;42.138;24.768;2023-07-31T03:12:14;99022.69;;;27.17;47.40
71151;BME280;59071;42.138;24.768;2023-07-31T03:14:39;99016.19;;;27.01;48.04
71151;BME280;59071;42.138;24.768;2023-07-31T03:17:05;99022.31;;;26.98;48.19
71151;BME280;59071;42.138;24.768;2023-07-31T03:19:31;99023.00;;;26.56;50.16
71151;BME280;59071;42.138;24.768;2023-07-31T03:21:57;99026.53;;;26.48;52.92
71151;BME280;59071;42.138;24.768;2023-07-31T03:24:23;99025.97;;;26.33;55.58
71151;BME280;59071;42.138;24.768;2023-07-31T03:26:48;99035.00;;;26.17;56.97
71151;BME280;59071;42.138;24.768;2023-07-31T03:29:14;99044.13;;;26.12;58.48
71151;BME280;59071;42.138;24.768;2023-07-31T03:31:39;99030.84;;;25.84;60.32
71151;BME280;59071;42.138;24.768;2023-07-31T03:34:04;99048.50;;;25.96;61.23
71151;BME280;59071;42.138;24.768;2023-07-31T03:36:30;99063.91;;;25.91;62.23
71151;BME280;59071;42.138;24.768;2023-07-31T03:38:55;99063.84;;;25.83;63.33
71151;BME280;59071;42.138;24.768;2023-07-31T03:41:21;99066.25;;;25.58;64.24
71151;BME280;59071;42.138;24.768;2023-07-31T03:43:51;99059.88;;;25.63;64.27
71151;BME280;59071;42.138;24.768;2023-07-31T03:46:23;99067.47;;;25.17;65.63
71151;BME280;59071;42.138;24.768;2023-07-31T03:48:49;99083.88;;;25.34;65.28
71151;BME280;59071;42.138;24.768;2023-07-31T03:51:15;99091.41;;;25.46;65.06
71151;BME280;59071;42.138;24.768;2023-07-31T03:53:41;99089.63;;;25.33;66.16
71151;BME280;59071;42.138;24.768;2023-07-31T03:56:07;99102.59;;;25.27;66.49
71151;BME280;59071;42.138;24.768;2023-07-31T03:58:32;99101.84;;;25.04;68.45
71151;BME280;59071;42.138;24.768;2023-07-31T04:00:58;99106.19;;;25.14;68.48
71151;BME280;59071;42.138;24.768;2023-07-31T04:03:23;99114.44;;;25.23;68.44
71151;BME280;59071;42.138;24.768;2023-07-31T04:05:48;99111.63;;;25.14;68.86
71151;BME280;59071;42.138;24.768;2023-07-31T04:08:14;99107.41;;;24.99;68.70
71151;BME280;59071;42.138;24.768;2023-07-31T04:10:39;99110.50;;;25.06;68.54
71151;BME280;59071;42.138;24.768;2023-07-31T04:13:05;99112.25;;;25.02;69.25
71151;BME280;59071;42.138;24.768;2023-07-31T04:15:30;99111.41;;;24.93;69.08
71151;BME280;59071;42.138;24.768;2023-07-31T04:17:55;99109.91;;;24.78;69.32
71151;BME280;59071;42.138;24.768;2023-07-31T04:20:21;99106.06;;;24.79;69.75
71151;BME280;59071;42.138;24.768;2023-07-31T04:22:46;99118.56;;;24.80;70.82
71151;BME280;59071;42.138;24.768;2023-07-31T04:25:12;99119.69;;;24.88;70.27
71151;BME280;59071;42.138;24.768;2023-07-31T04:27:38;99118.91;;;24.87;69.68
71151;BME280;59071;42.138;24.768;2023-07-31T04:30:04;99126.28;;;24.87;69.87
71151;BME280;59071;42.138;24.768;2023-07-31T04:32:30;99128.03;;;24.91;70.04
71151;BME280;59071;42.138;24.768;2023-07-31T04:34:55;99131.72;;;24.87;70.08
71151;BME280;59071;42.138;24.768;2023-07-31T04:37:20;99127.19;;;24.82;69.83
71151;BME280;59071;42.138;24.768;2023-07-31T04:39:46;99134.94;;;24.89;69.36
71151;BME280;59071;42.138;24.768;2023-07-31T04:42:12;99134.94;;;24.97;69.58
71151;BME280;59071;42.138;24.768;2023-07-31T04:44:37;99137.81;;;24.92;70.19
71151;BME280;59071;42.138;24.768;2023-07-31T04:47:03;99134.25;;;24.83;71.06
71151;BME280;59071;42.138;24.768;2023-07-31T04:49:28;99134.69;;;24.76;71.46
71151;BME280;59071;42.138;24.768;2023-07-31T04:51:54;99133.00;;;24.89;69.74
71151;BME280;59071;42.138;24.768;2023-07-31T04:54:19;99128.88;;;25.01;69.44
71151;BME280;59071;42.138;24.768;2023-07-31T04:56:44;99130.34;;;25.07;68.58
71151;BME280;59071;42.138;24.768;2023-07-31T04:59:10;99135.31;;;25.05;69.46
71151;BME280;59071;42.138;24.768;2023-07-31T05:01:35;99132.47;;;25.18;68.98
71151;BME280;59071;42.138;24.768;2023-07-31T05:04:01;99130.53;;;25.10;68.48
71151;BME280;59071;42.138;24.768;2023-07-31T05:06:26;99136.22;;;25.23;67.72
71151;BME280;59071;42.138;24.768;2023-07-31T05:08:52;99129.19;;;25.39;67.15
71151;BME280;59071;42.138;24.768;2023-07-31T05:11:17;99131.94;;;25.48;65.96
71151;BME280;59071;42.138;24.768;2023-07-31T05:13:42;99129.84;;;25.45;66.79
71151;BME280;59071;42.138;24.768;2023-07-31T05:16:08;99137.41;;;25.48;67.42
71151;BME280;59071;42.138;24.768;2023-07-31T05:18:33;99134.34;;;25.49;67.63
71151;BME280;59071;42.138;24.768;2023-07-31T05:20:59;99128.25;;;25.52;66.89
71151;BME280;59071;42.138;24.768;2023-07-31T05:23:24;99125.91;;;25.68;66.46
71151;BME280;59071;42.138;24.768;2023-07-31T05:25:49;99131.47;;;25.72;65.67
71151;BME280;59071;42.138;24.768;2023-07-31T05:28:15;99135.50;;;25.74;65.07
71151;BME280;59071;42.138;24.768;2023-07-31T05:30:40;99130.53;;;25.77;65.63
71151;BME280;59071;42.138;24.768;2023-07-31T05:33:06;99134.38;;;25.75;65.31
71151;BME280;59071;42.138;24.768;2023-07-31T05:35:31;99141.16;;;25.96;64.43
71151;BME280;59071;42.138;24.768;2023-07-31T05:37:57;99141.00;;;25.92;63.48
71151;BME280;59071;42.138;24.768;2023-07-31T05:40:22;99146.59;;;26.04;63.59
71151;BME280;59071;42.138;24.768;2023-07-31T05:42:47;99145.31;;;26.19;62.66
71151;BME280;59071;42.138;24.768;2023-07-31T05:45:13;99148.81;;;26.46;62.23
71151;BME280;59071;42.138;24.768;2023-07-31T05:47:39;99147.75;;;26.94;60.96
71151;BME280;59071;42.138;24.768;2023-07-31T05:50:04;99145.94;;;27.07;57.94
71151;BME280;59071;42.138;24.768;2023-07-31T05:52:30;99148.47;;;27.12;57.88
71151;BME280;59071;42.138;24.768;2023-07-31T05:54:55;99146.94;;;27.32;56.79
71151;BME280;59071;42.138;24.768;2023-07-31T05:57:21;99150.69;;;27.27;57.44
71151;BME280;59071;42.138;24.768;2023-07-31T05:59:46;99153.13;;;27.80;55.76
71151;BME280;59071;42.138;24.768;2023-07-31T06:02:12;99145.31;;;28.12;54.12
71151;BME280;59071;42.138;24.768;2023-07-31T06:04:37;99147.38;;;28.15;54.48
71151;BME280;59071;42.138;24.768;2023-07-31T06:07:03;99151.22;;;28.35;53.85
71151;BME280;59071;42.138;24.768;2023-07-31T06:09:28;99151.50;;;28.75;52.81
71151;BME280;59071;42.138;24.768;2023-07-31T06:11:54;99151.78;;;29.19;51.57
71151;BME280;59071;42.138;24.768;2023-07-31T06:14:19;99131.34;;;29.29;50.39
71151;BME280;59071;42.138;24.768;2023-07-31T06:16:45;99141.22;;;29.83;48.71
71151;BME280;59071;42.138;24.768;2023-07-31T06:19:10;99149.34;;;30.20;47.39
71151;BME280;59071;42.138;24.768;2023-07-31T06:21:36;99146.91;;;30.75;46.32
71151;BME280;59071;42.138;24.768;2023-07-31T06:24:07;99148.72;;;30.55;46.11
71151;BME280;59071;42.138;24.768;2023-07-31T06:26:33;99147.16;;;30.70;44.86
71151;BME280;59071;42.138;24.768;2023-07-31T06:28:58;99141.16;;;31.12;44.80
71151;BME280;59071;42.138;24.768;2023-07-31T06:31:24;99151.94;;;31.52;43.73
71151;BME280;59071;42.138;24.768;2023-07-31T06:33:50;99150.72;;;31.50;43.89
71151;BME280;59071;42.138;24.768;2023-07-31T06:36:16;99146.53;;;31.75;43.08
71151;BME280;59071;42.138;24.768;2023-07-31T06:38:41;99148.66;;;31.82;42.82
71151;BME280;59071;42.138;24.768;2023-07-31T06:41:06;99146.25;;;32.16;42.67
71151;BME280;59071;42.138;24.768;2023-07-31T06:43:32;99143.69;;;32.46;42.65
71151;BME280;59071;42.138;24.768;2023-07-31T06:45:57;99140.72;;;32.36;41.98
71151;BME280;59071;42.138;24.768;2023-07-31T06:48:23;99135.41;;;32.66;41.74
71151;BME280;59071;42.138;24.768;2023-07-31T06:50:48;99129.22;;;32.72;41.02
71151;BME280;59071;42.138;24.768;2023-07-31T06:53:14;99137.84;;;32.51;40.94
71151;BME280;59071;42.138;24.768;2023-07-31T06:55:39;99138.47;;;32.41;41.08
71151;BME280;59071;42.138;24.768;2023-07-31T06:58:05;99130.69;;;32.66;40.37
71151;BME280;59071;42.138;24.768;2023-07-31T07:00:30;99143.44;;;32.55;40.53
71151;BME280;59071;42.138;24.768;2023-07-31T07:02:56;99139.41;;;32.95;40.14
71151;BME280;59071;42.138;24.768;2023-07-31T07:05:21;99136.78;;;33.02;39.99
71151;BME280;59071;42.138;24.768;2023-07-31T07:07:49;99137.38;;;33.11;40.17
71151;BME280;59071;42.138;24.768;2023-07-31T07:10:15;99136.28;;;32.31;40.50
71151;BME280;59071;42.138;24.768;2023-07-31T07:12:40;99137.56;;;32.14;41.29
71151;BME280;59071;42.138;24.768;2023-07-31T07:15:06;99140.91;;;33.12;40.10
71151;BME280;59071;42.138;24.768;2023-07-31T07:17:32;99134.31;;;33.70;38.39
71151;BME280;59071;42.138;24.768;2023-07-31T07:19:57;99126.16;;;33.54;38.17
71151;BME280;59071;42.138;24.768;2023-07-31T07:22:23;99141.50;;;33.78;38.08
71151;BME280;59071;42.138;24.768;2023-07-31T07:24:49;99138.66;;;34.05;37.94
71151;BME280;59071;42.138;24.768;2023-07-31T07:27:14;99143.41;;;34.08;37.80
71151;BME280;59071;42.138;24.768;2023-07-31T07:29:40;99138.53;;;33.94;38.41
71151;BME280;59071;42.138;24.768;2023-07-31T07:32:05;99122.28;;;33.89;38.01
71151;BME280;59071;42.138;24.768;2023-07-31T07:34:31;99137.91;;;34.08;38.34
71151;BME280;59071;42.138;24.768;2023-07-31T07:36:56;99131.75;;;34.18;38.08
71151;BME280;59071;42.138;24.768;2023-07-31T07:39:22;99141.81;;;34.78;37.24
71151;BME280;59071;42.138;24.768;2023-07-31T07:41:47;99138.25;;;34.74;36.97
71151;BME280;59071;42.138;24.768;2023-07-31T07:44:13;99126.31;;;35.11;36.56
71151;BME280;59071;42.138;24.768;2023-07-31T07:46:39;99128.72;;;35.79;35.19
71151;BME280;59071;42.138;24.768;2023-07-31T07:49:05;99126.56;;;36.42;34.26
71151;BME280;59071;42.138;24.768;2023-07-31T07:51:30;99128.78;;;35.93;34.57
71151;BME280;59071;42.138;24.768;2023-07-31T07:53:57;99133.66;;;34.93;36.08
71151;BME280;59071;42.138;24.768;2023-07-31T07:56:24;99126.06;;;34.41;36.69
71151;BME280;59071;42.138;24.768;2023-07-31T07:58:49;99136.69;;;34.73;36.80
71151;BME280;59071;42.138;24.768;2023-07-31T08:01:15;99136.69;;;35.21;35.63
71151;BME280;59071;42.138;24.768;2023-07-31T08:03:41;99133.53;;;35.23;35.54
71151;BME280;59071;42.138;24.768;2023-07-31T08:06:06;99136.03;;;35.46;34.65
71151;BME280;59071;42.138;24.768;2023-07-31T08:08:34;99125.47;;;35.59;34.84
71151;BME280;59071;42.138;24.768;2023-07-31T08:11:00;99122.88;;;35.25;34.86
71151;BME280;59071;42.138;24.768;2023-07-31T08:13:25;99119.63;;;35.16;36.06
71151;BME280;59071;42.138;24.768;2023-07-31T08:15:51;99121.78;;;35.40;34.62
71151;BME280;59071;42.138;24.768;2023-07-31T08:18:16;99118.81;;;35.71;34.10
71151;BME280;59071;42.138;24.768;2023-07-31T08:20:42;99112.22;;;36.04;33.38
71151;BME280;59071;42.138;24.768;2023-07-31T08:23:08;99110.38;;;36.37;32.49
71151;BME280;59071;42.138;24.768;2023-07-31T08:25:35;99115.56;;;36.85;31.96
71151;BME280;59071;42.138;24.768;2023-07-31T08:28:01;99113.56;;;37.00;32.20
71151;BME280;59071;42.138;24.768;2023-07-31T08:30:27;99100.84;;;36.42;32.69
71151;BME280;59071;42.138;24.768;2023-07-31T08:32:52;99104.06;;;36.62;31.90
71151;BME280;59071;42.138;24.768;2023-07-31T08:35:17;99104.44;;;36.56;32.06
71151;BME280;59071;42.138;24.768;2023-07-31T08:37:43;99105.19;;;36.25;32.24
71151;BME280;59071;42.138;24.768;2023-07-31T08:40:09;99105.56;;;35.35;33.85
71151;BME280;59071;42.138;24.768;2023-07-31T08:42:49;99106.50;;;35.61;33.19
71151;BME280;59071;42.138;24.768;2023-07-31T08:45:16;99106.50;;;35.02;34.10
71151;BME280;59071;42.138;24.768;2023-07-31T08:47:50;99112.09;;;35.75;33.37
71151;BME280;59071;42.138;24.768;2023-07-31T08:50:20;99099.09;;;35.76;33.12
71151;BME280;59071;42.138;24.768;2023-07-31T08:52:47;99110.13;;;35.72;32.70
71151;BME280;59071;42.138;24.768;2023-07-31T08:55:13;99106.66;;;35.97;32.43
71151;BME280;59071;42.138;24.768;2023-07-31T08:57:39;99106.63;;;35.86;32.50
71151;BME280;59071;42.138;24.768;2023-07-31T09:00:08;99100.34;;;36.04;31.82
71151;BME280;59071;42.138;24.768;2023-07-31T09:02:52;99104.41;;;36.24;32.27
71151;BME280;59071;42.138;24.768;2023-07-31T09:05:20;99105.44;;;35.84;32.60
71151;BME280;59071;42.138;24.768;2023-07-31T09:07:47;99105.25;;;35.51;32.75
71151;BME280;59071;42.138;24.768;2023-07-31T09:10:13;99106.56;;;35.75;32.29
71151;BME280;59071;42.138;24.768;2023-07-31T09:12:39;99108.63;;;36.00;31.72
71151;BME280;59071;42.138;24.768;2023-07-31T09:15:05;99107.38;;;35.79;31.88
71151;BME280;59071;42.138;24.768;2023-07-31T09:17:33;99117.72;;;35.90;31.79
71151;BME280;59071;42.138;24.768;2023-07-31T09:20:21;99105.88;;;36.00;30.76
71151;BME280;59071;42.138;24.768;2023-07-31T09:22:48;99102.16;;;35.04;32.10
71151;BME280;59071;42.138;24.768;2023-07-31T09:25:26;99095.41;;;35.57;31.78
71151;BME280;59071;42.138;24.768;2023-07-31T09:27:59;99095.13;;;35.77;31.54
71151;BME280;59071;42.138;24.768;2023-07-31T09:30:24;99093.31;;;36.28;30.84
71151;BME280;59071;42.138;24.768;2023-07-31T09:32:51;99096.13;;;36.53;29.88
71151;BME280;59071;42.138;24.768;2023-07-31T09:35:27;99090.97;;;36.40;30.39
71151;BME280;59071;42.138;24.768;2023-07-31T09:37:55;99082.69;;;37.02;30.42
71151;BME280;59071;42.138;24.768;2023-07-31T09:40:31;99087.00;;;36.42;30.17
71151;BME280;59071;42.138;24.768;2023-07-31T09:43:01;99080.25;;;36.17;31.00
71151;BME280;59071;42.138;24.768;2023-07-31T09:45:27;99075.38;;;35.82;30.76
71151;BME280;59071;42.138;24.768;2023-07-31T09:47:53;99068.25;;;35.74;30.96
71151;BME280;59071;42.138;24.768;2023-07-31T09:50:23;99072.41;;;35.42;31.11
71151;BME280;59071;42.138;24.768;2023-07-31T09:52:50;99066.31;;;35.96;30.97
71151;BME280;59071;42.138;24.768;2023-07-31T09:55:16;99070.31;;;36.13;30.11
71151;BME280;59071;42.138;24.768;2023-07-31T09:57:44;99069.97;;;36.22;29.75
71151;BME280;59071;42.138;24.768;2023-07-31T10:00:10;99073.94;;;36.28;30.10
71151;BME280;59071;42.138;24.768;2023-07-31T10:02:37;99074.69;;;36.10;29.77
71151;BME280;59071;42.138;24.768;2023-07-31T10:05:04;99053.75;;;36.31;29.84
71151;BME280;59071;42.138;24.768;2023-07-31T10:07:31;99069.22;;;36.46;29.42
71151;BME280;59071;42.138;24.768;2023-07-31T10:10:00;99063.66;;;36.50;28.92
71151;BME280;59071;42.138;24.768;2023-07-31T10:12:26;99062.91;;;36.74;28.81
71151;BME280;59071;42.138;24.768;2023-07-31T10:14:55;99055.38;;;36.82;29.05
71151;BME280;59071;42.138;24.768;2023-07-31T10:17:22;99047.44;;;36.37;29.23
71151;BME280;59071;42.138;24.768;2023-07-31T10:19:49;99049.38;;;36.19;29.88
71151;BME280;59071;42.138;24.768;2023-07-31T10:22:15;99054.16;;;36.29;30.68
71151;BME280;59071;42.138;24.768;2023-07-31T10:24:45;99047.47;;;36.77;29.20
71151;BME280;59071;42.138;24.768;2023-07-31T10:27:10;99051.41;;;36.79;29.55
71151;BME280;59071;42.138;24.768;2023-07-31T10:29:39;99041.88;;;36.98;28.33
71151;BME280;59071;42.138;24.768;2023-07-31T10:32:07;99037.16;;;36.74;28.22
71151;BME280;59071;42.138;24.768;2023-07-31T10:34:35;99023.72;;;36.62;28.92
71151;BME280;59071;42.138;24.768;2023-07-31T10:37:27;99027.66;;;36.39;29.41
71151;BME280;59071;42.138;24.768;2023-07-31T10:40:00;99026.06;;;36.45;29.90
71151;BME280;59071;42.138;24.768;2023-07-31T10:42:33;99025.66;;;36.25;29.43
71151;BME280;59071;42.138;24.768;2023-07-31T10:45:02;99017.38;;;36.47;28.47
71151;BME280;59071;42.138;24.768;2023-07-31T10:47:27;99017.38;;;36.75;28.01
71151;BME280;59071;42.138;24.768;2023-07-31T10:49:53;99013.81;;;36.75;28.42
71151;BME280;59071;42.138;24.768;2023-07-31T10:52:35;99014.16;;;36.09;29.46
71151;BME280;59071;42.138;24.768;2023-07-31T10:55:15;98997.97;;;36.83;28.88
71151;BME280;59071;42.138;24.768;2023-07-31T10:57:44;98989.63;;;36.90;28.17
71151;BME280;59071;42.138;24.768;2023-07-31T11:00:21;98993.63;;;36.31;28.90
71151;BME280;59071;42.138;24.768;2023-07-31T11:03:06;98994.81;;;36.48;29.25
71151;BME280;59071;42.138;24.768;2023-07-31T11:05:42;98997.13;;;37.00;28.28
71151;BME280;59071;42.138;24.768;2023-07-31T11:10:46;98992.50;;;35.19;32.43
71151;BME280;59071;42.138;24.768;2023-07-31T11:13:13;99002.19;;;34.40;34.05
71151;BME280;59071;42.138;24.768;2023-07-31T11:15:39;99000.22;;;34.89;33.80
71151;BME280;59071;42.138;24.768;2023-07-31T11:18:04;99004.41;;;35.27;33.43
71151;BME280;59071;42.138;24.768;2023-07-31T11:20:35;99023.97;;;34.49;34.51
71151;BME280;59071;42.138;24.768;2023-07-31T11:23:07;99020.38;;;34.03;34.98
71151;BME280;59071;42.138;24.768;2023-07-31T11:25:33;99018.34;;;33.63;36.33
71151;BME280;59071;42.138;24.768;2023-07-31T11:28:06;99020.78;;;33.68;36.29
71151;BME280;59071;42.138;24.768;2023-07-31T11:30:32;99018.41;;;33.36;36.24
71151;BME280;59071;42.138;24.768;2023-07-31T11:32:58;99021.06;;;33.02;36.83
71151;BME280;59071;42.138;24.768;2023-07-31T11:35:23;99009.44;;;32.63;36.98
71151;BME280;59071;42.138;24.768;2023-07-31T11:37:49;99008.63;;;31.54;39.49
71151;BME280;59071;42.138;24.768;2023-07-31T11:40:14;99011.75;;;31.52;39.84
71151;BME280;59071;42.138;24.768;2023-07-31T11:42:41;99012.00;;;32.29;38.17
71151;BME280;59071;42.138;24.768;2023-07-31T11:45:09;99000.34;;;32.59;37.64
71151;BME280;59071;42.138;24.768;2023-07-31T11:47:37;98997.94;;;32.34;37.72
71151;BME280;59071;42.138;24.768;2023-07-31T11:50:04;99008.09;;;32.76;36.88
71151;BME280;59071;42.138;24.768;2023-07-31T11:52:33;98997.75;;;32.96;36.44
71151;BME280;59071;42.138;24.768;2023-07-31T11:55:00;99001.41;;;32.31;37.57
71151;BME280;59071;42.138;24.768;2023-07-31T11:57:27;98996.56;;;32.01;36.93
71151;BME280;59071;42.138;24.768;2023-07-31T11:59:53;98992.66;;;32.02;38.28
71151;BME280;59071;42.138;24.768;2023-07-31T12:02:19;98992.88;;;32.36;38.59
71151;BME280;59071;42.138;24.768;2023-07-31T12:04:46;98999.28;;;32.44;39.25
71151;BME280;59071;42.138;24.768;2023-07-31T12:07:12;98996.72;;;31.89;39.71
71151;BME280;59071;42.138;24.768;2023-07-31T12:09:38;98985.03;;;32.15;39.50
71151;BME280;59071;42.138;24.768;2023-07-31T12:12:08;98982.59;;;32.56;38.39
71151;BME280;59071;42.138;24.768;2023-07-31T12:14:34;98984.66;;;32.40;38.51
71151;BME280;59071;42.138;24.768;2023-07-31T12:17:03;98970.09;;;32.89;37.44
71151;BME280;59071;42.138;24.768;2023-07-31T12:19:29;98971.69;;;32.90;37.81
71151;BME280;59071;42.138;24.768;2023-07-31T12:21:56;98971.59;;;33.40;36.88
71151;BME280;59071;42.138;24.768;2023-07-31T12:24:21;98969.75;;;33.55;35.95
71151;BME280;59071;42.138;24.768;2023-07-31T12:26:48;98962.94;;;33.75;35.39
71151;BME280;59071;42.138;24.768;2023-07-31T12:29:14;98961.34;;;33.40;36.53
71151;BME280;59071;42.138;24.768;2023-07-31T12:31:41;98963.84;;;33.53;35.98
71151;BME280;59071;42.138;24.768;2023-07-31T12:34:17;98960.06;;;33.64;36.20
71151;BME280;59071;42.138;24.768;2023-07-31T12:36:43;98947.31;;;33.56;35.78
71151;BME280;59071;42.138;24.768;2023-07-31T12:39:09;98943.19;;;33.73;35.23
71151;BME280;59071;42.138;24.768;2023-07-31T12:41:35;98953.25;;;33.92;34.93
71151;BME280;59071;42.138;24.768;2023-07-31T12:44:00;98951.47;;;34.14;34.42
71151;BME280;59071;42.138;24.768;2023-07-31T12:46:26;98950.09;;;34.38;34.12
71151;BME280;59071;42.138;24.768;2023-07-31T12:48:51;98940.88;;;34.16;33.79
71151;BME280;59071;42.138;24.768;2023-07-31T12:51:16;98936.28;;;34.35;34.24
71151;BME280;59071;42.138;24.768;2023-07-31T12:53:42;98939.44;;;34.33;33.64
71151;BME280;59071;42.138;24.768;2023-07-31T12:56:07;98939.59;;;34.58;31.80
71151;BME280;59071;42.138;24.768;2023-07-31T12:58:33;98936.53;;;34.71;31.60